sensor_id;sensor_type;location;lat;lon;timestamp;P1;durP1;ratioP1;P2;durP2;ratioP2
11957;SDS011;6039;52.576;13.348;2023-05-27T00:04:44;7.00;;;2.50;;
11957;SDS011;6039;52.576;13.348;2023-05-27T00:09:51;6.60;;;2.70;;
11957;SDS011;6039;52.576;13.348;2023-05-27T00:14:55;4.60;;;2.30;;
11957;SDS011;6039;52.576;13.348;2023-05-27T00:19:59;6.07;;;2.50;;
11957;SDS011;6039;52.576;13.348;2023-05-27T00:25:11;5.97;;;2.57;;
11957;SDS011;6039;52.576;13.348;2023-05-27T00:30:15;4.50;;;2.27;;
11957;SDS011;6039;52.576;13.348;2023-05-27T00:35:19;3.93;;;2.23;;
11957;SDS011;6039;52.576;13.348;2023-05-27T00:40:26;5.33;;;2.60;;
11957;SDS011;6039;52.576;13.348;2023-05-27T00:45:31;5.43;;;1.93;;
11957;SDS011;6039;52.576;13.348;2023-05-27T00:50:35;6.27;;;2.33;;
11957;SDS011;6039;52.576;13.348;2023-05-27T00:55:42;11.00;;;2.80;;
11957;SDS011;6039;52.576;13.348;2023-05-27T01:00:46;4.53;;;2.30;;
11957;SDS011;6039;52.576;13.348;2023-05-27T01:05:51;4.43;;;2.10;;
11957;SDS011;6039;52.576;13.348;2023-05-27T01:11:00;8.10;;;2.73;;
11957;SDS011;6039;52.576;13.348;2023-05-27T01:16:05;3.83;;;2.20;;
11957;SDS011;6039;52.576;13.348;2023-05-27T01:21:14;4.13;;;2.43;;
11957;SDS011;6039;52.576;13.348;2023-05-27T01:26:22;4.27;;;2.40;;
11957;SDS011;6039;52.576;13.348;2023-05-27T01:31:28;5.77;;;2.90;;
11957;SDS011;6039;52.576;13.348;2023-05-27T01:36:39;6.27;;;2.97;;
11957;SDS011;6039;52.576;13.348;2023-05-27T01:41:49;2.83;;;2.13;;
11957;SDS011;6039;52.576;13.348;2023-05-27T01:46:57;4.77;;;2.40;;
11957;SDS011;6039;52.576;13.348;2023-05-27T01:52:02;5.10;;;2.37;;
11957;SDS011;6039;52.576;13.348;2023-05-27T01:57:11;6.40;;;2.40;;
11957;SDS011;6039;52.576;13.348;2023-05-27T02:02:15;6.97;;;2.60;;
11957;SDS011;6039;52.576;13.348;2023-05-27T02:07:19;6.70;;;2.67;;
11957;SDS011;6039;52.576;13.348;2023-05-27T02:12:25;6.20;;;2.47;;
11957;SDS011;6039;52.576;13.348;2023-05-27T02:17:29;6.43;;;2.33;;
11957;SDS011;6039;52.576;13.348;2023-05-27T02:22:33;5.33;;;2.40;;
11957;SDS011;6039;52.576;13.348;2023-05-27T02:27:40;7.63;;;2.70;;
11957;SDS011;6039;52.576;13.348;2023-05-27T02:32:48;4.43;;;2.27;;
11957;SDS011;6039;52.576;13.348;2023-05-27T02:37:52;4.73;;;2.30;;
11957;SDS011;6039;52.576;13.348;2023-05-27T02:42:59;5.17;;;2.43;;
11957;SDS011;6039;52.576;13.348;2023-05-27T02:48:03;6.83;;;2.53;;
11957;SDS011;6039;52.576;13.348;2023-05-27T02:53:07;6.70;;;2.53;;
11957;SDS011;6039;52.576;13.348;2023-05-27T02:58:14;11.33;;;3.17;;
11957;SDS011;6039;52.576;13.348;2023-05-27T03:03:18;5.97;;;3.00;;
11957;SDS011;6039;52.576;13.348;2023-05-27T03:08:23;6.87;;;2.90;;
11957;SDS011;6039;52.576;13.348;2023-05-27T03:13:30;5.60;;;3.13;;
11957;SDS011;6039;52.576;13.348;2023-05-27T03:18:34;7.47;;;3.03;;
11957;SDS011;6039;52.576;13.348;2023-05-27T03:23:38;3.83;;;2.53;;
11957;SDS011;6039;52.576;13.348;2023-05-27T03:28:44;11.07;;;3.47;;
11957;SDS011;6039;52.576;13.348;2023-05-27T03:33:48;7.10;;;2.63;;
11957;SDS011;6039;52.576;13.348;2023-05-27T03:38:53;9.83;;;3.27;;
11957;SDS011;6039;52.576;13.348;2023-05-27T03:44:00;8.00;;;3.30;;
11957;SDS011;6039;52.576;13.348;2023-05-27T03:49:04;5.63;;;3.00;;
11957;SDS011;6039;52.576;13.348;2023-05-27T03:54:08;5.13;;;3.20;;
11957;SDS011;6039;52.576;13.348;2023-05-27T03:59:15;7.83;;;3.27;;
11957;SDS011;6039;52.576;13.348;2023-05-27T04:04:19;7.10;;;3.30;;
11957;SDS011;6039;52.576;13.348;2023-05-27T04:09:23;7.17;;;3.57;;
11957;SDS011;6039;52.576;13.348;2023-05-27T04:14:30;7.30;;;3.17;;
11957;SDS011;6039;52.576;13.348;2023-05-27T04:19:34;7.23;;;3.00;;
11957;SDS011;6039;52.576;13.348;2023-05-27T04:24:39;5.70;;;2.83;;
11957;SDS011;6039;52.576;13.348;2023-05-27T04:29:45;7.33;;;3.40;;
11957;SDS011;6039;52.576;13.348;2023-05-27T04:34:51;5.43;;;3.00;;
11957;SDS011;6039;52.576;13.348;2023-05-27T04:39:55;4.30;;;2.70;;
11957;SDS011;6039;52.576;13.348;2023-05-27T04:45:02;5.53;;;3.07;;
11957;SDS011;6039;52.576;13.348;2023-05-27T04:50:07;4.87;;;3.17;;
11957;SDS011;6039;52.576;13.348;2023-05-27T04:55:12;8.97;;;3.80;;
11957;SDS011;6039;52.576;13.348;2023-05-27T05:00:18;5.53;;;2.70;;
11957;SDS011;6039;52.576;13.348;2023-05-27T05:05:36;6.10;;;3.23;;
11957;SDS011;6039;52.576;13.348;2023-05-27T05:10:40;8.17;;;2.90;;
11957;SDS011;6039;52.576;13.348;2023-05-27T05:15:46;4.60;;;2.60;;
11957;SDS011;6039;52.576;13.348;2023-05-27T05:20:51;7.43;;;2.53;;
11957;SDS011;6039;52.576;13.348;2023-05-27T05:25:55;9.57;;;2.97;;
11957;SDS011;6039;52.576;13.348;2023-05-27T05:31:08;6.93;;;2.70;;
11957;SDS011;6039;52.576;13.348;2023-05-27T05:36:12;4.00;;;2.50;;
11957;SDS011;6039;52.576;13.348;2023-05-27T05:41:16;7.80;;;2.80;;
11957;SDS011;6039;52.576;13.348;2023-05-27T05:46:23;5.33;;;2.47;;
11957;SDS011;6039;52.576;13.348;2023-05-27T05:51:27;6.77;;;2.63;;
11957;SDS011;6039;52.576;13.348;2023-05-27T05:56:31;3.63;;;2.30;;
11957;SDS011;6039;52.576;13.348;2023-05-27T06:01:38;4.33;;;1.97;;
11957;SDS011;6039;52.576;13.348;2023-05-27T06:06:42;3.93;;;1.80;;
11957;SDS011;6039;52.576;13.348;2023-05-27T06:11:46;2.93;;;1.50;;
11957;SDS011;6039;52.576;13.348;2023-05-27T06:16:52;3.60;;;1.90;;
11957;SDS011;6039;52.576;13.348;2023-05-27T06:21:56;7.03;;;2.23;;
11957;SDS011;6039;52.576;13.348;2023-05-27T06:27:00;1.77;;;1.40;;
11957;SDS011;6039;52.576;13.348;2023-05-27T06:32:07;1.90;;;1.03;;
11957;SDS011;6039;52.576;13.348;2023-05-27T06:37:11;3.00;;;1.27;;
11957;SDS011;6039;52.576;13.348;2023-05-27T06:42:15;2.17;;;1.10;;
11957;SDS011;6039;52.576;13.348;2023-05-27T06:47:22;1.43;;;1.00;;
11957;SDS011;6039;52.576;13.348;2023-05-27T06:52:26;1.70;;;1.10;;
11957;SDS011;6039;52.576;13.348;2023-05-27T06:57:30;1.77;;;1.00;;
11957;SDS011;6039;52.576;13.348;2023-05-27T07:02:36;2.03;;;0.93;;
11957;SDS011;6039;52.576;13.348;2023-05-27T07:07:40;1.50;;;1.03;;
11957;SDS011;6039;52.576;13.348;2023-05-27T07:12:45;1.30;;;0.90;;
11957;SDS011;6039;52.576;13.348;2023-05-27T07:17:51;1.83;;;0.87;;
11957;SDS011;6039;52.576;13.348;2023-05-27T07:22:55;1.97;;;0.80;;
11957;SDS011;6039;52.576;13.348;2023-05-27T07:27:59;0.90;;;0.90;;
11957;SDS011;6039;52.576;13.348;2023-05-27T07:33:06;1.27;;;0.90;;
11957;SDS011;6039;52.576;13.348;2023-05-27T07:38:10;0.90;;;0.80;;
11957;SDS011;6039;52.576;13.348;2023-05-27T07:43:14;1.45;;;0.85;;
11957;SDS011;6039;52.576;13.348;2023-05-27T07:48:21;1.63;;;1.15;;
11957;SDS011;6039;52.576;13.348;2023-05-27T07:53:25;1.58;;;0.80;;
11957;SDS011;6039;52.576;13.348;2023-05-27T07:58:29;0.73;;;0.70;;
11957;SDS011;6039;52.576;13.348;2023-05-27T08:03:35;1.77;;;1.00;;
11957;SDS011;6039;52.576;13.348;2023-05-27T08:08:39;1.67;;;0.80;;
11957;SDS011;6039;52.576;13.348;2023-05-27T08:13:44;1.75;;;1.08;;
11957;SDS011;6039;52.576;13.348;2023-05-27T08:18:51;1.48;;;1.15;;
11957;SDS011;6039;52.576;13.348;2023-05-27T08:23:55;1.35;;;1.02;;
11957;SDS011;6039;52.576;13.348;2023-05-27T08:28:59;1.92;;;0.98;;
11957;SDS011;6039;52.576;13.348;2023-05-27T08:34:05;1.05;;;0.80;;
11957;SDS011;6039;52.576;13.348;2023-05-27T08:39:10;1.23;;;0.80;;
11957;SDS011;6039;52.576;13.348;2023-05-27T08:44:14;1.20;;;0.80;;
11957;SDS011;6039;52.576;13.348;2023-05-27T08:49:21;1.88;;;0.90;;
11957;SDS011;6039;52.576;13.348;2023-05-27T08:54:26;1.02;;;0.95;;
11957;SDS011;6039;52.576;13.348;2023-05-27T08:59:30;1.23;;;0.90;;
11957;SDS011;6039;52.576;13.348;2023-05-27T09:04:36;1.58;;;0.85;;
11957;SDS011;6039;52.576;13.348;2023-05-27T09:09:41;1.73;;;1.27;;
11957;SDS011;6039;52.576;13.348;2023-05-27T09:14:46;1.17;;;0.90;;
11957;SDS011;6039;52.576;13.348;2023-05-27T09:19:56;1.10;;;0.80;;
11957;SDS011;6039;52.576;13.348;2023-05-27T09:25:00;1.00;;;0.90;;
11957;SDS011;6039;52.576;13.348;2023-05-27T09:30:08;0.88;;;0.73;;
11957;SDS011;6039;52.576;13.348;2023-05-27T09:35:16;1.00;;;0.90;;
11957;SDS011;6039;52.576;13.348;2023-05-27T09:40:20;1.58;;;1.00;;
11957;SDS011;6039;52.576;13.348;2023-05-27T09:45:24;1.30;;;0.90;;
11957;SDS011;6039;52.576;13.348;2023-05-27T09:50:31;1.50;;;1.10;;
11957;SDS011;6039;52.576;13.348;2023-05-27T09:55:35;1.83;;;1.30;;
11957;SDS011;6039;52.576;13.348;2023-05-27T10:00:39;1.10;;;1.00;;
11957;SDS011;6039;52.576;13.348;2023-05-27T10:05:48;1.88;;;1.00;;
11957;SDS011;6039;52.576;13.348;2023-05-27T10:10:53;1.25;;;1.10;;
11957;SDS011;6039;52.576;13.348;2023-05-27T10:15:57;1.92;;;1.20;;
11957;SDS011;6039;52.576;13.348;2023-05-27T10:21:05;1.35;;;1.15;;
11957;SDS011;6039;52.576;13.348;2023-05-27T10:26:09;1.45;;;0.90;;
11957;SDS011;6039;52.576;13.348;2023-05-27T10:31:14;1.40;;;1.10;;
11957;SDS011;6039;52.576;13.348;2023-05-27T10:36:24;1.95;;;1.33;;
11957;SDS011;6039;52.576;13.348;2023-05-27T10:41:38;1.45;;;1.23;;
11957;SDS011;6039;52.576;13.348;2023-05-27T10:46:43;1.38;;;1.27;;
11957;SDS011;6039;52.576;13.348;2023-05-27T10:51:50;2.42;;;1.38;;
11957;SDS011;6039;52.576;13.348;2023-05-27T10:56:54;1.85;;;1.20;;
11957;SDS011;6039;52.576;13.348;2023-05-27T11:01:58;1.80;;;1.30;;
11957;SDS011;6039;52.576;13.348;2023-05-27T11:07:05;1.67;;;1.27;;
11957;SDS011;6039;52.576;13.348;2023-05-27T11:12:12;1.40;;;1.27;;
11957;SDS011;6039;52.576;13.348;2023-05-27T11:17:17;1.45;;;1.15;;
11957;SDS011;6039;52.576;13.348;2023-05-27T11:22:24;1.48;;;1.20;;
11957;SDS011;6039;52.576;13.348;2023-05-27T11:27:34;1.30;;;1.20;;
11957;SDS011;6039;52.576;13.348;2023-05-27T11:32:39;1.60;;;1.40;;
11957;SDS011;6039;52.576;13.348;2023-05-27T11:37:49;1.70;;;1.40;;
11957;SDS011;6039;52.576;13.348;2023-05-27T11:42:59;1.83;;;1.27;;
11957;SDS011;6039;52.576;13.348;2023-05-27T11:48:03;1.60;;;1.40;;
11957;SDS011;6039;52.576;13.348;2023-05-27T11:53:10;1.30;;;1.10;;
11957;SDS011;6039;52.576;13.348;2023-05-27T11:58:13;2.45;;;1.60;;
11957;SDS011;6039;52.576;13.348;2023-05-27T12:03:17;1.38;;;1.20;;
11957;SDS011;6039;52.576;13.348;2023-05-27T12:08:24;1.75;;;1.30;;
11957;SDS011;6039;52.576;13.348;2023-05-27T12:13:28;1.65;;;1.30;;
11957;SDS011;6039;52.576;13.348;2023-05-27T12:18:32;2.13;;;1.40;;
11957;SDS011;6039;52.576;13.348;2023-05-27T12:23:39;1.20;;;1.10;;
11957;SDS011;6039;52.576;13.348;2023-05-27T12:28:43;1.33;;;1.10;;
11957;SDS011;6039;52.576;13.348;2023-05-27T12:33:47;1.75;;;1.08;;
11957;SDS011;6039;52.576;13.348;2023-05-27T12:38:54;1.38;;;1.20;;
11957;SDS011;6039;52.576;13.348;2023-05-27T12:43:57;1.27;;;1.15;;
11957;SDS011;6039;52.576;13.348;2023-05-27T12:49:01;1.40;;;1.02;;
11957;SDS011;6039;52.576;13.348;2023-05-27T12:54:10;3.58;;;1.30;;
11957;SDS011;6039;52.576;13.348;2023-05-27T12:59:14;1.33;;;1.23;;
11957;SDS011;6039;52.576;13.348;2023-05-27T13:04:18;1.50;;;1.25;;
11957;SDS011;6039;52.576;13.348;2023-05-27T13:09:24;2.55;;;1.50;;
11957;SDS011;6039;52.576;13.348;2023-05-27T13:14:29;1.55;;;1.17;;
11957;SDS011;6039;52.576;13.348;2023-05-27T13:19:33;1.77;;;1.20;;
11957;SDS011;6039;52.576;13.348;2023-05-27T13:24:40;1.40;;;1.20;;
11957;SDS011;6039;52.576;13.348;2023-05-27T13:29:43;2.90;;;1.38;;
11957;SDS011;6039;52.576;13.348;2023-05-27T13:34:47;1.98;;;1.30;;
11957;SDS011;6039;52.576;13.348;2023-05-27T13:39:54;1.27;;;1.17;;
11957;SDS011;6039;52.576;13.348;2023-05-27T13:44:58;1.60;;;1.25;;
11957;SDS011;6039;52.576;13.348;2023-05-27T13:50:02;1.10;;;1.00;;
11957;SDS011;6039;52.576;13.348;2023-05-27T13:55:09;0.98;;;0.90;;
11957;SDS011;6039;52.576;13.348;2023-05-27T14:00:13;0.93;;;0.85;;
11957;SDS011;6039;52.576;13.348;2023-05-27T14:05:18;1.80;;;1.20;;
11957;SDS011;6039;52.576;13.348;2023-05-27T14:10:24;1.30;;;1.15;;
11957;SDS011;6039;52.576;13.348;2023-05-27T14:15:30;1.83;;;1.05;;
11957;SDS011;6039;52.576;13.348;2023-05-27T14:20:34;1.75;;;1.10;;
11957;SDS011;6039;52.576;13.348;2023-05-27T14:25:40;1.60;;;1.20;;
11957;SDS011;6039;52.576;13.348;2023-05-27T14:30:44;1.20;;;1.10;;
11957;SDS011;6039;52.576;13.348;2023-05-27T14:35:48;1.90;;;1.10;;
11957;SDS011;6039;52.576;13.348;2023-05-27T14:40:55;2.75;;;1.30;;
11957;SDS011;6039;52.576;13.348;2023-05-27T14:45:59;1.10;;;1.00;;
11957;SDS011;6039;52.576;13.348;2023-05-27T14:51:03;1.58;;;0.90;;
11957;SDS011;6039;52.576;13.348;2023-05-27T14:56:09;1.42;;;1.10;;
11957;SDS011;6039;52.576;13.348;2023-05-27T15:01:13;1.60;;;1.10;;
11957;SDS011;6039;52.576;13.348;2023-05-27T15:06:17;1.10;;;1.00;;
11957;SDS011;6039;52.576;13.348;2023-05-27T15:11:24;1.35;;;1.02;;
11957;SDS011;6039;52.576;13.348;2023-05-27T15:16:28;1.80;;;1.10;;
11957;SDS011;6039;52.576;13.348;2023-05-27T15:21:32;2.17;;;1.43;;
11957;SDS011;6039;52.576;13.348;2023-05-27T15:26:38;1.65;;;1.10;;
11957;SDS011;6039;52.576;13.348;2023-05-27T15:31:42;2.27;;;1.17;;
11957;SDS011;6039;52.576;13.348;2023-05-27T15:36:46;1.33;;;1.23;;
11957;SDS011;6039;52.576;13.348;2023-05-27T15:41:53;1.40;;;1.20;;
11957;SDS011;6039;52.576;13.348;2023-05-27T15:46:57;1.75;;;1.20;;
11957;SDS011;6039;52.576;13.348;2023-05-27T15:52:01;1.90;;;1.53;;
11957;SDS011;6039;52.576;13.348;2023-05-27T15:57:13;2.45;;;1.02;;
11957;SDS011;6039;52.576;13.348;2023-05-27T16:02:17;0.80;;;0.80;;
11957;SDS011;6039;52.576;13.348;2023-05-27T16:07:21;1.90;;;1.10;;
11957;SDS011;6039;52.576;13.348;2023-05-27T16:12:27;1.53;;;1.10;;
11957;SDS011;6039;52.576;13.348;2023-05-27T16:17:33;1.67;;;1.13;;
11957;SDS011;6039;52.576;13.348;2023-05-27T16:22:37;1.70;;;1.25;;
11957;SDS011;6039;52.576;13.348;2023-05-27T16:27:44;1.40;;;1.10;;
11957;SDS011;6039;52.576;13.348;2023-05-27T16:32:47;2.08;;;1.10;;
11957;SDS011;6039;52.576;13.348;2023-05-27T16:37:52;1.30;;;1.10;;
11957;SDS011;6039;52.576;13.348;2023-05-27T16:42:59;1.93;;;1.10;;
11957;SDS011;6039;52.576;13.348;2023-05-27T16:48:03;1.87;;;1.20;;
11957;SDS011;6039;52.576;13.348;2023-05-27T16:53:07;1.83;;;1.20;;
11957;SDS011;6039;52.576;13.348;2023-05-27T16:58:13;2.13;;;1.00;;
11957;SDS011;6039;52.576;13.348;2023-05-27T17:03:18;1.47;;;1.13;;
11957;SDS011;6039;52.576;13.348;2023-05-27T17:08:22;1.43;;;1.20;;
11957;SDS011;6039;52.576;13.348;2023-05-27T17:13:28;1.50;;;1.20;;
11957;SDS011;6039;52.576;13.348;2023-05-27T17:18:32;2.20;;;1.50;;
11957;SDS011;6039;52.576;13.348;2023-05-27T17:23:37;2.50;;;1.27;;
11957;SDS011;6039;52.576;13.348;2023-05-27T17:28:44;1.60;;;1.20;;
11957;SDS011;6039;52.576;13.348;2023-05-27T17:33:48;2.53;;;1.40;;
11957;SDS011;6039;52.576;13.348;2023-05-27T17:38:52;5.57;;;3.70;;
11957;SDS011;6039;52.576;13.348;2023-05-27T17:43:58;3.57;;;1.37;;
11957;SDS011;6039;52.576;13.348;2023-05-27T17:49:02;10.17;;;7.40;;
11957;SDS011;6039;52.576;13.348;2023-05-27T17:54:06;3.47;;;1.40;;
11957;SDS011;6039;52.576;13.348;2023-05-27T17:59:13;2.27;;;1.40;;
11957;SDS011;6039;52.576;13.348;2023-05-27T18:04:17;2.63;;;1.90;;
11957;SDS011;6039;52.576;13.348;2023-05-27T18:09:21;2.87;;;1.70;;
11957;SDS011;6039;52.576;13.348;2023-05-27T18:14:28;1.87;;;1.40;;
11957;SDS011;6039;52.576;13.348;2023-05-27T18:19:32;2.57;;;1.83;;
11957;SDS011;6039;52.576;13.348;2023-05-27T18:24:36;4.23;;;1.80;;
11957;SDS011;6039;52.576;13.348;2023-05-27T18:29:42;5.20;;;3.80;;
11957;SDS011;6039;52.576;13.348;2023-05-27T18:34:46;4.57;;;2.40;;
11957;SDS011;6039;52.576;13.348;2023-05-27T18:39:50;3.20;;;2.00;;
11957;SDS011;6039;52.576;13.348;2023-05-27T18:44:57;3.77;;;1.93;;
11957;SDS011;6039;52.576;13.348;2023-05-27T18:50:01;2.73;;;1.80;;
11957;SDS011;6039;52.576;13.348;2023-05-27T18:55:06;2.73;;;1.80;;
11957;SDS011;6039;52.576;13.348;2023-05-27T19:00:14;2.77;;;1.87;;
11957;SDS011;6039;52.576;13.348;2023-05-27T19:05:18;3.10;;;1.90;;
11957;SDS011;6039;52.576;13.348;2023-05-27T19:10:25;2.50;;;1.77;;
11957;SDS011;6039;52.576;13.348;2023-05-27T19:15:32;6.33;;;3.00;;
11957;SDS011;6039;52.576;13.348;2023-05-27T19:20:36;2.97;;;2.30;;
11957;SDS011;6039;52.576;13.348;2023-05-27T19:25:40;3.77;;;2.57;;
11957;SDS011;6039;52.576;13.348;2023-05-27T19:30:48;4.50;;;2.23;;
11957;SDS011;6039;52.576;13.348;2023-05-27T19:35:52;3.70;;;2.37;;
11957;SDS011;6039;52.576;13.348;2023-05-27T19:40:57;3.93;;;2.50;;
11957;SDS011;6039;52.576;13.348;2023-05-27T19:46:04;4.80;;;2.40;;
11957;SDS011;6039;52.576;13.348;2023-05-27T19:51:08;7.40;;;4.50;;
11957;SDS011;6039;52.576;13.348;2023-05-27T19:56:12;3.77;;;2.50;;
11957;SDS011;6039;52.576;13.348;2023-05-27T20:01:19;4.30;;;2.93;;
11957;SDS011;6039;52.576;13.348;2023-05-27T20:06:23;3.00;;;2.37;;
11957;SDS011;6039;52.576;13.348;2023-05-27T20:11:27;3.77;;;2.53;;
11957;SDS011;6039;52.576;13.348;2023-05-27T20:16:34;3.40;;;2.37;;
11957;SDS011;6039;52.576;13.348;2023-05-27T20:21:38;4.23;;;2.93;;
11957;SDS011;6039;52.576;13.348;2023-05-27T20:26:42;5.30;;;3.40;;
11957;SDS011;6039;52.576;13.348;2023-05-27T20:31:49;5.50;;;3.40;;
11957;SDS011;6039;52.576;13.348;2023-05-27T20:36:53;6.73;;;3.63;;
11957;SDS011;6039;52.576;13.348;2023-05-27T20:41:57;9.47;;;6.33;;
11957;SDS011;6039;52.576;13.348;2023-05-27T20:47:03;10.97;;;6.27;;
11957;SDS011;6039;52.576;13.348;2023-05-27T20:52:08;9.67;;;6.17;;
11957;SDS011;6039;52.576;13.348;2023-05-27T20:57:12;11.00;;;7.20;;
11957;SDS011;6039;52.576;13.348;2023-05-27T21:02:18;10.37;;;6.57;;
11957;SDS011;6039;52.576;13.348;2023-05-27T21:07:24;7.90;;;5.83;;
11957;SDS011;6039;52.576;13.348;2023-05-27T21:12:28;8.73;;;5.90;;
11957;SDS011;6039;52.576;13.348;2023-05-27T21:17:35;8.47;;;6.13;;
11957;SDS011;6039;52.576;13.348;2023-05-27T21:22:39;9.53;;;6.47;;
11957;SDS011;6039;52.576;13.348;2023-05-27T21:27:43;9.50;;;6.33;;
11957;SDS011;6039;52.576;13.348;2023-05-27T21:32:50;8.53;;;6.00;;
11957;SDS011;6039;52.576;13.348;2023-05-27T21:37:54;12.07;;;7.00;;
11957;SDS011;6039;52.576;13.348;2023-05-27T21:43:00;10.20;;;7.00;;
11957;SDS011;6039;52.576;13.348;2023-05-27T21:48:06;10.43;;;6.93;;
11957;SDS011;6039;52.576;13.348;2023-05-27T21:53:10;8.47;;;6.27;;
11957;SDS011;6039;52.576;13.348;2023-05-27T21:58:14;9.53;;;6.67;;
11957;SDS011;6039;52.576;13.348;2023-05-27T22:03:21;9.73;;;6.90;;
11957;SDS011;6039;52.576;13.348;2023-05-27T22:08:25;10.03;;;6.07;;
11957;SDS011;6039;52.576;13.348;2023-05-27T22:13:29;8.97;;;6.37;;
11957;SDS011;6039;52.576;13.348;2023-05-27T22:18:36;8.37;;;6.17;;
11957;SDS011;6039;52.576;13.348;2023-05-27T22:23:40;8.13;;;5.63;;
11957;SDS011;6039;52.576;13.348;2023-05-27T22:28:44;11.53;;;6.83;;
11957;SDS011;6039;52.576;13.348;2023-05-27T22:33:50;14.03;;;6.20;;
11957;SDS011;6039;52.576;13.348;2023-05-27T22:38:54;9.23;;;6.10;;
11957;SDS011;6039;52.576;13.348;2023-05-27T22:43:58;8.33;;;5.53;;
11957;SDS011;6039;52.576;13.348;2023-05-27T22:49:05;7.50;;;5.20;;
11957;SDS011;6039;52.576;13.348;2023-05-27T22:54:09;11.37;;;6.07;;
11957;SDS011;6039;52.576;13.348;2023-05-27T22:59:13;8.73;;;5.20;;
11957;SDS011;6039;52.576;13.348;2023-05-27T23:04:19;7.17;;;5.03;;
11957;SDS011;6039;52.576;13.348;2023-05-27T23:09:23;5.83;;;4.77;;
11957;SDS011;6039;52.576;13.348;2023-05-27T23:14:27;7.93;;;5.00;;
11957;SDS011;6039;52.576;13.348;2023-05-27T23:19:34;6.97;;;4.97;;
11957;SDS011;6039;52.576;13.348;2023-05-27T23:24:38;8.60;;;5.47;;
11957;SDS011;6039;52.576;13.348;2023-05-27T23:29:42;10.30;;;5.27;;
11957;SDS011;6039;52.576;13.348;2023-05-27T23:34:48;7.93;;;5.43;;
11957;SDS011;6039;52.576;13.348;2023-05-27T23:39:52;8.73;;;5.43;;
11957;SDS011;6039;52.576;13.348;2023-05-27T23:44:56;10.53;;;6.23;;
11957;SDS011;6039;52.576;13.348;2023-05-27T23:50:03;8.80;;;5.77;;
11957;SDS011;6039;52.576;13.348;2023-05-27T23:55:08;10.17;;;5.90;;
